This is the latest recevied weather packets stored in our database for station/object YH8VA-1. If no packets are shown the sender has not sent any weather packets the latest 10 day(s).
| Time | Temp. | Humidity | Pressure | Rain* | Wind** | Luminosity | Snow |
|---|---|---|---|---|---|---|---|
| 1778123135 | 33.89° C | 60% | 998 hPa | - | - | 0 W/m² | - |
| 1778122813 | 33.89° C | 59% | 998 hPa | - | - | 0 W/m² | - |
| 1778122490 | 33.89° C | 59% | 999 hPa | - | - | 0 W/m² | - |
| 1778122168 | 34.44° C | 57% | 999 hPa | - | - | 0 W/m² | - |
| 1778121846 | 34.44° C | 57% | 999 hPa | - | - | 0 W/m² | - |
| 1778121524 | 33.89° C | 59% | 999 hPa | - | - | 0 W/m² | - |
| 1778121202 | 33.33° C | 60% | 999 hPa | - | - | 0 W/m² | - |
| 1778120880 | 33.89° C | 59% | 999 hPa | - | - | 0 W/m² | - |
| 1778120558 | 33.89° C | 59% | 999 hPa | - | - | 0 W/m² | - |
| 1778120236 | 33.89° C | 59% | 999 hPa | - | - | 0 W/m² | - |
| 1778119914 | 33.89° C | 59% | 999 hPa | - | - | 0 W/m² | - |
| 1778119591 | 33.33° C | 60% | 999 hPa | - | - | 0 W/m² | - |
| 1778119268 | 32.78° C | 61% | 999 hPa | - | - | 0 W/m² | - |
| 1778118946 | 32.78° C | 61% | 999 hPa | - | - | 0 W/m² | - |
| 1778118624 | 32.78° C | 61% | 999 hPa | - | - | 0 W/m² | - |
| 1778118302 | 32.78° C | 61% | 999 hPa | - | - | 0 W/m² | - |
| 1778117980 | 33.33° C | 59% | 999 hPa | - | - | 0 W/m² | - |
| 1778117658 | 32.78° C | 61% | 999 hPa | - | - | 0 W/m² | - |
| 1778117336 | 32.78° C | 61% | 999 hPa | - | - | 0 W/m² | - |
| 1778117014 | 34.44° C | 58% | 999 hPa | - | - | 0 W/m² | - |
| 1778116692 | 33.89° C | 58% | 999 hPa | - | - | 0 W/m² | - |
| 1778116370 | 33.89° C | 59% | 1000 hPa | - | - | 0 W/m² | - |
| 1778116047 | 34.44° C | 58% | 999 hPa | - | - | 0 W/m² | - |
| 1778115726 | 33.33° C | 60% | 999 hPa | - | - | 0 W/m² | - |
| 1778115403 | 33.89° C | 58% | 999 hPa | - | - | 0 W/m² | - |
* Rain since midnight (hover to see other rain measurements)
** Current wind speed in m/s (hover to see current wind gust speed)